Time;durP1;ratioP1;P1;durP2;ratioP2;P2;SDS_P1;SDS_P2;PMS_P1;PMS_P2;Temp;Humidity;BMP_temperature;BMP_pressure;BME280_temperature;BME280_humidity;BME280_pressure;Samples;Min_cycle;Max_cycle;Signal;HPM_P1;HPM_P2
2022/04/24 00:01:20;;;;;;;;;;;;;;;8.92;100.00;98008.97;1768855;81;20105;-73
2022/04/24 00:03:48;;;;;;;;;;;;;;;8.94;100.00;97989.37;1769025;81;20133;-72
2022/04/24 00:06:15;;;;;;;;;;;;;;;8.96;100.00;97961.72;1768718;81;20085;-73
2022/04/24 00:08:43;;;;;;;;;;;;;;;9.00;100.00;97959.42;1769011;81;20086;-72
2022/04/24 00:11:10;;;;;;;;;;;;;;;9.02;100.00;97966.77;1769320;80;20456;-73
2022/04/24 00:13:41;;;;;;;;;;;;;;;9.06;100.00;97957.21;1769027;81;20129;-72
2022/04/24 00:16:07;;;;;;;;;;;;;;;9.08;100.00;97958.67;1769347;81;20121;-73
2022/04/24 00:18:37;;;;;;;;;;;;;;;9.09;100.00;97952.22;1769270;81;20109;-72
2022/04/24 00:21:05;;;;;;;;;;;;;;;9.13;100.00;97952.09;1769141;81;20100;-72
2022/04/24 00:23:32;;;;;;;;;;;;;;;9.15;100.00;97956.45;1768940;80;20425;-72
2022/04/24 00:26:00;;;;;;;;;;;;;;;9.18;100.00;97955.52;1769381;81;20093;-72
2022/04/24 00:28:28;;;;;;;;;;;;;;;9.20;100.00;97952.08;1769079;81;20117;-72
2022/04/24 00:30:55;;;;;;;;;;;;;;;9.20;100.00;97949.91;1768970;81;20097;-73
2022/04/24 00:33:22;;;;;;;;;;;;;;;9.20;100.00;97945.33;1766445;81;20928;-72
2022/04/24 00:35:51;;;;;;;;;;;;;;;9.22;100.00;97947.82;1744140;82;20089;-72
2022/04/24 00:38:19;;;;;;;;;;;;;;;9.20;100.00;97935.89;1744525;82;20101;-73
2022/04/24 00:40:47;;;;;;;;;;;;;;;9.20;100.00;97925.64;1744724;82;20152;-73
2022/04/24 00:43:14;;;;;;;;;;;;;;;9.17;100.00;97918.82;1744601;82;20097;-73
2022/04/24 00:46:02;;;;;;;;;;;;;;;9.16;100.00;97917.69;1744364;82;20167;-72
2022/04/24 00:48:29;;;;;;;;;;;;;;;9.16;100.00;97917.69;1732586;80;20100;-73
2022/04/24 00:50:56;;;;;;;;;;;;;;;9.13;100.00;97917.05;1785265;80;20132;-73
2022/04/24 00:53:23;;;;;;;;;;;;;;;9.11;100.00;97920.48;1784972;80;20089;-74
2022/04/24 00:55:50;;;;;;;;;;;;;;;9.07;100.00;97915.22;1785244;79;20101;-72
2022/04/24 00:58:18;;;;;;;;;;;;;;;9.05;100.00;97925.92;1751867;82;20114;-73
2022/04/24 01:00:47;;;;;;;;;;;;;;;9.02;100.00;97929.85;1771478;81;20398;-73
2022/04/24 01:03:14;;;;;;;;;;;;;;;8.99;100.00;97932.14;1771256;80;20145;-73
2022/04/24 01:05:42;;;;;;;;;;;;;;;8.97;100.00;97933.70;1771285;81;20128;-73
2022/04/24 01:08:10;;;;;;;;;;;;;;;8.95;100.00;97931.74;1771281;81;20224;-72
2022/04/24 01:10:38;;;;;;;;;;;;;;;8.97;100.00;97931.53;1771417;81;20141;-72
2022/04/24 01:13:05;;;;;;;;;;;;;;;8.96;100.00;97921.28;1771316;81;20536;-72
2022/04/24 01:15:33;;;;;;;;;;;;;;;8.95;100.00;97916.92;1771371;80;20123;-73
2022/04/24 01:18:00;;;;;;;;;;;;;;;8.95;100.00;97918.27;1771204;81;20121;-75
2022/04/24 01:20:28;;;;;;;;;;;;;;;8.95;100.00;97917.45;1771553;81;20225;-73
2022/04/24 01:22:56;;;;;;;;;;;;;;;8.95;100.00;97923.66;1771176;81;20121;-73
2022/04/24 01:25:23;;;;;;;;;;;;;;;8.95;100.00;97925.53;1771502;81;20171;-74
2022/04/24 01:27:52;;;;;;;;;;;;;;;8.98;100.00;97930.48;1770954;81;20090;-73
2022/04/24 01:30:19;;;;;;;;;;;;;;;9.00;100.00;97930.59;1770279;81;20169;-73
2022/04/24 01:32:47;;;;;;;;;;;;;;;9.01;100.00;97925.52;1769692;81;20118;-72
2022/04/24 01:35:15;;;;;;;;;;;;;;;9.03;100.00;97922.08;1780765;80;20097;-73
2022/04/24 01:37:43;;;;;;;;;;;;;;;9.04;100.00;97926.95;1782210;81;20093;-74
2022/04/24 01:40:11;;;;;;;;;;;;;;;9.04;100.00;97922.91;1782359;81;20089;-74
2022/04/24 01:42:38;;;;;;;;;;;;;;;9.03;100.00;97921.23;1781988;81;20101;-73
2022/04/24 01:45:06;;;;;;;;;;;;;;;9.03;100.00;97915.84;1791002;80;20094;-74
2022/04/24 01:47:34;;;;;;;;;;;;;;;9.01;100.00;97910.69;1826590;79;20106;-72
2022/04/24 01:50:00;;;;;;;;;;;;;;;9.01;100.00;97917.43;1804649;78;20119;-74
2022/04/24 01:52:29;;;;;;;;;;;;;;;9.00;100.00;97918.98;1787512;80;20122;-74
2022/04/24 01:54:57;;;;;;;;;;;;;;;9.00;100.00;97917.64;1787641;80;20094;-73
2022/04/24 01:57:24;;;;;;;;;;;;;;;8.99;100.00;97927.57;1787622;80;20158;-74
2022/04/24 01:59:53;;;;;;;;;;;;;;;8.99;100.00;97928.92;1787399;80;20407;-74
2022/04/24 02:02:19;;;;;;;;;;;;;;;8.98;100.00;97930.48;1787683;80;20090;-73
2022/04/24 02:04:46;;;;;;;;;;;;;;;8.97;100.00;97932.35;1787572;80;20091;-75
2022/04/24 02:07:13;;;;;;;;;;;;;;;8.96;100.00;97940.64;1787389;80;20102;-73
2022/04/24 02:09:42;;;;;;;;;;;;;;;8.96;100.00;97923.98;1787258;80;20134;-72
2022/04/24 02:12:09;;;;;;;;;;;;;;;8.98;100.00;97930.48;1787730;80;20126;-74
2022/04/24 02:14:38;;;;;;;;;;;;;;;8.99;100.00;97926.22;1736842;83;20100;-74
2022/04/24 02:17:05;;;;;;;;;;;;;;;9.00;100.00;97926.55;1737190;83;20104;-74
2022/04/24 02:19:34;;;;;;;;;;;;;;;9.01;100.00;97926.02;1737006;82;20108;-73
2022/04/24 02:22:02;;;;;;;;;;;;;;;9.00;100.00;97929.77;1737179;83;20404;-74
2022/04/24 02:24:29;;;;;;;;;;;;;;;9.00;100.00;97929.77;1736945;83;20234;-73
2022/04/24 02:26:58;;;;;;;;;;;;;;;8.99;100.00;97927.57;1737470;82;20104;-74
2022/04/24 02:29:27;;;;;;;;;;;;;;;8.99;100.00;97930.27;1702607;82;20111;-74
2022/04/24 02:31:54;;;;;;;;;;;;;;;9.00;100.00;97930.59;1694924;85;20119;-74
2022/04/24 02:34:21;;;;;;;;;;;;;;;8.99;100.00;97933.49;1719435;82;20104;-74
2022/04/24 02:36:49;;;;;;;;;;;;;;;8.98;100.00;97934.02;1742689;82;20159;-74
2022/04/24 02:39:16;;;;;;;;;;;;;;;8.99;100.00;97937.53;1742970;82;20096;-74
2022/04/24 02:41:43;;;;;;;;;;;;;;;9.00;100.00;97945.94;1742960;82;20112;-74
2022/04/24 02:44:12;;;;;;;;;;;;;;;9.00;100.00;97944.59;1742592;82;20125;-72
2022/04/24 02:46:39;;;;;;;;;;;;;;;9.01;100.00;97951.63;1742564;82;20135;-74
2022/04/24 02:49:06;;;;;;;;;;;;;;;8.99;100.00;97951.83;1745548;80;20124;-74
2022/04/24 02:51:34;;;;;;;;;;;;;;;8.99;100.00;97951.83;1774116;81;20177;-73
2022/04/24 02:54:01;;;;;;;;;;;;;;;8.98;100.00;97963.67;1778322;80;20137;-73
2022/04/24 02:56:28;;;;;;;;;;;;;;;8.96;100.00;97964.41;1782104;81;20163;-73
2022/04/24 02:58:56;;;;;;;;;;;;;;;8.96;100.00;97980.58;1812086;79;20130;-74
2022/04/24 03:01:24;;;;;;;;;;;;;;;8.95;100.00;97979.44;1810448;79;20128;-72
2022/04/24 03:03:51;;;;;;;;;;;;;;;8.95;100.00;97985.65;1809966;79;20125;-73
2022/04/24 03:06:19;;;;;;;;;;;;;;;8.95;100.00;97988.34;1810170;79;20190;-73
2022/04/24 03:08:48;;;;;;;;;;;;;;;8.93;100.00;97993.12;1810155;79;20144;-74
2022/04/24 03:11:17;;;;;;;;;;;;;;;8.91;100.00;97994.67;1810659;79;20149;-74
2022/04/24 03:13:45;;;;;;;;;;;;;;;8.88;100.00;97991.05;1810040;79;20116;-73
2022/04/24 03:16:13;;;;;;;;;;;;;;;8.86;100.00;97990.44;1810173;79;20117;-73
2022/04/24 03:18:40;;;;;;;;;;;;;;;8.83;100.00;98000.28;1810042;79;20152;-74
2022/04/24 03:21:07;;;;;;;;;;;;;;;8.81;100.00;98005.58;1810152;78;20113;-73
2022/04/24 03:23:35;;;;;;;;;;;;;;;8.78;100.00;98000.08;1810014;79;20117;-74
2022/04/24 03:26:03;;;;;;;;;;;;;;;8.73;100.00;98002.07;1810206;79;20117;-74
2022/04/24 03:28:32;;;;;;;;;;;;;;;8.71;100.00;98014.08;1803003;79;20104;-73
2022/04/24 03:31:00;;;;;;;;;;;;;;;8.68;100.00;98013.17;1794721;80;20412;-74
2022/04/24 03:33:28;;;;;;;;;;;;;;;8.66;100.00;98012.02;1797446;79;20143;-74
2022/04/24 03:35:56;;;;;;;;;;;;;;;8.64;100.00;98015.95;1815660;79;20453;-73
2022/04/24 03:38:24;;;;;;;;;;;;;;;8.61;100.00;98014.52;1815399;79;20117;-72
2022/04/24 03:40:51;;;;;;;;;;;;;;;8.60;100.00;98016.06;1815711;79;20152;-74
2022/04/24 03:43:19;;;;;;;;;;;;;;;8.60;100.00;98017.41;1815538;79;20124;-73
2022/04/24 03:45:46;;;;;;;;;;;;;;;8.61;100.00;98016.39;1815725;79;20125;-72
2022/04/24 03:48:14;;;;;;;;;;;;;;;8.63;100.00;98011.61;1815528;79;20124;-73
2022/04/24 03:50:42;;;;;;;;;;;;;;;8.64;100.00;98012.76;1815577;79;20129;-72
2022/04/24 03:53:12;;;;;;;;;;;;;;;8.67;100.00;98012.32;1815968;78;20108;-73
2022/04/24 03:55:40;;;;;;;;;;;;;;;8.68;100.00;98011.30;1815451;79;20156;-73
2022/04/24 03:58:07;;;;;;;;;;;;;;;8.69;100.00;98009.42;1815793;79;20153;-73
2022/04/24 04:00:34;;;;;;;;;;;;;;;8.70;100.00;98008.39;1815721;79;20405;-73
2022/04/24 04:03:02;;;;;;;;;;;;;;;8.71;100.00;98001.45;1815998;79;20117;-74
2022/04/24 04:05:34;;;;;;;;;;;;;;;8.72;100.00;97997.70;1816008;79;20116;-74
2022/04/24 04:08:03;;;;;;;;;;;;;;;8.74;100.00;98002.36;1815987;79;20144;-72
2022/04/24 04:10:31;;;;;;;;;;;;;;;8.78;100.00;98006.81;1815641;79;20436;-74
2022/04/24 04:13:00;;;;;;;;;;;;;;;8.83;100.00;98000.28;1815673;79;20515;-74
2022/04/24 04:15:28;;;;;;;;;;;;;;;8.89;100.00;97999.45;1812597;79;20128;-73
2022/04/24 04:17:55;;;;;;;;;;;;;;;8.99;100.00;97993.61;1816468;79;20420;-74
2022/04/24 04:20:23;;;;;;;;;;;;;;;9.11;100.00;97989.76;1816008;79;20435;-73
2022/04/24 04:22:51;;;;;;;;;;;;;;;9.25;100.00;97983.81;1815930;79;20208;-74
2022/04/24 04:25:20;;;;;;;;;;;;;;;9.41;100.00;97974.41;1815723;78;20145;-73
2022/04/24 04:27:48;;;;;;;;;;;;;;;9.54;100.00;97972.98;1816726;79;20144;-74
2022/04/24 04:30:16;;;;;;;;;;;;;;;9.68;100.00;97962.46;1821105;78;20104;-73
2022/04/24 04:32:44;;;;;;;;;;;;;;;9.81;100.00;97964.25;1821409;79;20108;-73
2022/04/24 04:35:11;;;;;;;;;;;;;;;9.93;100.00;97967.59;1807840;79;20107;-74
2022/04/24 04:37:39;;;;;;;;;;;;;;;9.99;100.00;97970.78;1805861;79;20090;-73
2022/04/24 04:40:10;;;;;;;;;;;;;;;10.02;100.00;97978.42;1805827;79;20106;-73
2022/04/24 04:42:38;;;;;;;;;;;;;;;10.02;100.00;97991.42;1806031;79;20098;-74
2022/04/24 04:45:06;;;;;;;;;;;;;;;10.02;100.00;97995.98;1805743;79;20382;-75
2022/04/24 04:47:34;;;;;;;;;;;;;;;10.06;100.00;98003.44;1805696;79;20129;-74
2022/04/24 04:50:02;;;;;;;;;;;;;;;10.14;100.00;98005.57;1806544;79;20401;-74
2022/04/24 04:52:30;;;;;;;;;;;;;;;10.20;100.00;98004.19;1808612;79;20119;-73
2022/04/24 04:54:57;;;;;;;;;;;;;;;10.32;100.00;98007.55;1808496;79;20095;-73
2022/04/24 04:57:25;;;;;;;;;;;;;;;10.43;100.00;98012.27;1808881;79;20122;-74
2022/04/24 04:59:54;;;;;;;;;;;;;;;10.56;100.00;98007.27;1808834;79;20094;-73
2022/04/24 05:02:21;;;;;;;;;;;;;;;10.68;100.00;98011.41;1808556;79;20106;-72
2022/04/24 05:04:48;;;;;;;;;;;;;;;10.79;100.00;98018.28;1808351;79;20149;-75
2022/04/24 05:07:16;;;;;;;;;;;;;;;10.89;100.00;98028.61;1808537;79;20106;-74
2022/04/24 05:09:43;;;;;;;;;;;;;;;11.00;100.00;98043.27;1808423;79;20103;-75
2022/04/24 05:12:11;;;;;;;;;;;;;;;11.10;100.00;98062.53;1808566;79;20091;-73
2022/04/24 05:14:38;;;;;;;;;;;;;;;11.16;100.00;98079.20;1808318;79;20111;-73
2022/04/24 05:17:07;;;;;;;;;;;;;;;11.29;100.00;98109.35;1808632;79;20395;-74
2022/04/24 05:19:35;;;;;;;;;;;;;;;11.43;100.00;98129.00;1808726;79;20101;-74
2022/04/24 05:22:04;;;;;;;;;;;;;;;11.53;100.00;98151.51;1808206;79;20130;-73
2022/04/24 05:24:33;;;;;;;;;;;;;;;11.65;100.00;98174.59;1808188;79;20103;-74
2022/04/24 05:27:01;;;;;;;;;;;;;;;11.75;100.00;98207.40;1808437;79;20095;-74
2022/04/24 05:29:30;;;;;;;;;;;;;;;11.83;100.00;98237.41;1795879;79;20096;-73
2022/04/24 05:31:57;;;;;;;;;;;;;;;11.90;100.00;98273.41;1797551;80;20132;-73
2022/04/24 05:34:25;;;;;;;;;;;;;;;11.99;100.00;98298.33;1805176;79;20116;-74
2022/04/24 05:36:52;;;;;;;;;;;;;;;12.06;100.00;98333.81;1812801;79;20460;-73
2022/04/24 05:39:21;;;;;;;;;;;;;;;12.11;100.00;98354.30;1812499;79;20152;-75
2022/04/24 05:41:49;;;;;;;;;;;;;;;12.21;100.00;98377.34;1821277;79;20128;-74
2022/04/24 05:44:16;;;;;;;;;;;;;;;12.34;100.00;98393.46;1821096;79;20139;-73
2022/04/24 05:46:43;;;;;;;;;;;;;;;12.45;100.00;98409.55;1821331;79;20117;-71
2022/04/24 05:49:11;;;;;;;;;;;;;;;12.57;100.00;98429.45;1821080;79;20128;-72
2022/04/24 05:51:38;;;;;;;;;;;;;;;12.54;100.00;98460.53;1821140;79;20105;-73
2022/04/24 05:54:05;;;;;;;;;;;;;;;12.56;100.00;98496.09;1821363;79;20139;-73
2022/04/24 05:56:33;;;;;;;;;;;;;;;12.62;100.00;98507.39;1821280;79;20116;-74
2022/04/24 05:59:00;;;;;;;;;;;;;;;12.73;100.00;98507.51;1820942;79;20507;-73
2022/04/24 06:01:28;;;;;;;;;;;;;;;12.90;100.00;98519.14;1821303;79;20116;-74
2022/04/24 06:03:57;;;;;;;;;;;;;;;13.01;100.00;98537.38;1820999;79;20116;-72
2022/04/24 06:06:25;;;;;;;;;;;;;;;13.09;100.00;98561.53;1821484;79;20120;-75
2022/04/24 06:08:54;;;;;;;;;;;;;;;13.15;100.00;98578.80;1821459;79;20131;-73
2022/04/24 06:11:21;;;;;;;;;;;;;;;13.26;100.00;98598.94;1821389;79;20428;-72
2022/04/24 06:13:48;;;;;;;;;;;;;;;13.41;100.00;98607.59;1821073;79;20155;-74
2022/04/24 06:16:15;;;;;;;;;;;;;;;13.52;100.00;98632.36;1821422;79;20128;-74
2022/04/24 06:18:42;;;;;;;;;;;;;;;13.51;100.00;98670.91;1821036;79;20104;-74
2022/04/24 06:21:10;;;;;;;;;;;;;;;13.58;100.00;98677.11;1821463;79;20136;-73
2022/04/24 06:23:38;;;;;;;;;;;;;;;13.64;100.00;98688.95;1821100;79;20305;-73
2022/04/24 06:26:05;;;;;;;;;;;;;;;13.67;100.00;98726.00;1821321;79;20156;-72
2022/04/24 06:28:32;;;;;;;;;;;;;;;13.80;100.00;98732.37;1805708;79;20120;-72
2022/04/24 06:31:00;;;;;;;;;;;;;;;13.92;100.00;98745.52;1786979;80;20116;-73
2022/04/24 06:33:29;;;;;;;;;;;;;;;14.14;100.00;98741.82;1786524;80;20159;-73
2022/04/24 06:35:55;;;;;;;;;;;;;;;14.29;100.00;98752.34;1787126;80;20124;-72
2022/04/24 06:38:22;;;;;;;;;;;;;;;14.40;100.00;98747.48;1786723;80;20125;-73
2022/04/24 06:40:50;;;;;;;;;;;;;;;14.46;100.00;98750.36;1787028;80;20389;-72
2022/04/24 06:43:16;;;;;;;;;;;;;;;14.61;100.00;98752.20;1786925;80;20400;-73
2022/04/24 06:45:44;;;;;;;;;;;;;;;14.70;100.00;98757.63;1787053;80;20129;-73
2022/04/24 06:48:13;;;;;;;;;;;;;;;14.71;100.00;98772.05;1786997;80;20136;-72
2022/04/24 06:50:41;;;;;;;;;;;;;;;14.81;100.00;98779.14;1784919;80;20088;-72
2022/04/24 06:53:13;;;;;;;;;;;;;;;14.92;100.00;98776.98;1784002;80;20471;-73
2022/04/24 06:55:41;;;;;;;;;;;;;;;15.09;100.00;98777.19;1784561;80;20124;-72
2022/04/24 06:58:09;;;;;;;;;;;;;;;15.21;100.00;98794.94;1784285;80;20133;-72
2022/04/24 07:00:37;;;;;;;;;;;;;;;15.21;100.00;98800.38;1784668;80;20100;-72
2022/04/24 07:03:12;;;;;;;;;;;;;;;15.28;100.00;98802.48;1784240;80;20097;-73
2022/04/24 07:05:39;;;;;;;;;;;;;;;15.49;100.00;98786.64;1784567;80;20416;-72
2022/04/24 07:08:07;;;;;;;;;;;;;;;15.74;100.00;98783.72;1784082;80;20393;-74
2022/04/24 07:10:36;;;;;;;;;;;;;;;15.90;100.00;98806.23;1784595;80;20393;-74
2022/04/24 07:13:05;;;;;;;;;;;;;;;15.79;100.00;98826.11;1784243;80;20128;-73
2022/04/24 07:15:34;;;;;;;;;;;;;;;15.75;100.00;98839.92;1784073;80;20112;-73
2022/04/24 07:18:01;;;;;;;;;;;;;;;15.89;100.00;98822.83;1784715;80;20116;-74
2022/04/24 07:20:29;;;;;;;;;;;;;;;16.11;100.00;98840.27;1784534;80;20112;-72
2022/04/24 07:23:00;;;;;;;;;;;;;;;16.24;100.00;98861.56;1784647;80;20128;-73
2022/04/24 07:25:28;;;;;;;;;;;;;;;16.18;100.00;98870.67;1784781;80;20403;-73
2022/04/24 07:27:57;;;;;;;;;;;;;;;16.31;100.00;98852.73;1787862;80;20151;-73
2022/04/24 07:30:24;;;;;;;;;;;;;;;16.66;100.00;98836.32;1802485;78;20099;-72
2022/04/24 07:32:56;;;;;;;;;;;;;;;17.00;100.00;98852.06;1802185;79;20439;-72
2022/04/24 07:35:25;;;;;;;;;;;;;;;17.31;100.00;98845.83;1810100;79;20133;-72
2022/04/24 07:37:52;;;;;;;;;;;;;;;17.47;100.00;98873.72;1810389;79;20437;-73
2022/04/24 07:40:23;;;;;;;;;;;;;;;17.57;100.00;98885.39;1810610;78;20153;-72
2022/04/24 07:42:55;;;;;;;;;;;;;;;17.65;100.00;98887.70;1810325;79;20121;-73
2022/04/24 07:45:23;;;;;;;;;;;;;;;17.66;100.00;98908.52;1810658;79;20117;-73
2022/04/24 07:47:52;;;;;;;;;;;;;;;17.58;100.00;98913.00;1810306;79;20125;-72
2022/04/24 07:50:23;;;;;;;;;;;;;;;17.64;100.00;98917.50;1811166;79;20125;-73
2022/04/24 07:52:50;;;;;;;;;;;;;;;17.38;100.00;98940.22;1821876;79;20123;-72
2022/04/24 07:55:18;;;;;;;;;;;;;;;17.28;100.00;98931.81;1821822;79;20109;-72
2022/04/24 07:57:50;;;;;;;;;;;;;;;17.22;100.00;98927.33;1821474;79;20479;-71
2022/04/24 08:00:20;;;;;;;;;;;;;;;17.16;100.00;98919.57;1821480;79;20405;-71
2022/04/24 08:03:03;;;;;;;;;;;;;;;16.98;100.00;98923.81;1821318;79;20136;-72
2022/04/24 08:05:35;;;;;;;;;;;;;;;17.00;100.00;98919.78;1754859;82;20108;-72
2022/04/24 08:08:10;;;;;;;;;;;;;;;16.93;100.00;98924.55;1754650;82;20101;-71
2022/04/24 08:10:39;;;;;;;;;;;;;;;16.97;100.00;98907.97;1754602;82;20132;-71
2022/04/24 08:13:08;;;;;;;;;;;;;;;17.01;100.00;98903.68;1755184;82;20402;-71
2022/04/24 08:15:36;;;;;;;;;;;;;;;17.01;100.00;98909.14;1754980;82;20100;-72
2022/04/24 08:18:05;;;;;;;;;;;;;;;17.16;100.00;98897.72;1754994;82;20252;-72
2022/04/24 08:20:35;;;;;;;;;;;;;;;17.24;100.00;98905.52;1754579;82;20177;-71
2022/04/24 08:23:05;;;;;;;;;;;;;;;17.17;100.00;98918.48;1754859;82;20112;-72
2022/04/24 08:25:36;;;;;;;;;;;;;;;16.93;100.00;98927.28;1754837;82;20109;-71
2022/04/24 08:30:40;;;;;;;;;;;;;;;17.00;100.00;98921.16;1670576;86;20114;-72
2022/04/24 08:33:08;;;;;;;;;;;;;;;16.88;100.00;98921.70;1670800;86;20109;-72
2022/04/24 08:35:35;;;;;;;;;;;;;;;16.72;100.00;98916.41;1663763;86;20128;-72
2022/04/24 08:38:03;;;;;;;;;;;;;;;16.65;100.00;98910.24;1663925;85;20449;-74
2022/04/24 08:40:32;;;;;;;;;;;;;;;16.77;100.00;98912.43;1663620;86;20396;-71
2022/04/24 08:43:00;;;;;;;;;;;;;;;16.78;100.00;98908.61;1664159;86;20119;-72
2022/04/24 08:45:29;;;;;;;;;;;;;;;16.70;100.00;98929.47;1663692;86;20100;-72
2022/04/24 08:47:58;;;;;;;;;;;;;;;16.57;100.00;98923.69;1643741;87;20139;-73
2022/04/24 08:50:30;;;;;;;;;;;;;;;16.45;100.00;98917.41;1644234;87;20155;-73
2022/04/24 08:52:57;;;;;;;;;;;;;;;16.56;100.00;98902.95;1644143;87;20119;-72
2022/04/24 08:55:30;;;;;;;;;;;;;;;16.77;100.00;98901.51;1644144;87;20143;-71
2022/04/24 08:57:59;;;;;;;;;;;;;;;17.04;100.00;98899.66;1644112;87;20490;-73
2022/04/24 09:00:27;;;;;;;;;;;;;;;17.21;100.00;98906.53;1644254;86;20158;-71
2022/04/24 09:05:25;;;;;;;;;;;;;;;17.55;100.00;98906.13;1632745;88;20136;-72
2022/04/24 09:07:53;;;;;;;;;;;;;;;17.74;100.00;98913.60;1632731;88;20108;-73
2022/04/24 09:10:21;;;;;;;;;;;;;;;17.90;100.00;98919.35;1632619;88;20109;-71
2022/04/24 09:12:54;;;;;;;;;;;;;;;17.90;100.00;98933.02;1633135;88;20179;-73
2022/04/24 09:15:24;;;;;;;;;;;;;;;17.82;100.00;98933.69;1611205;88;21796;-71
2022/04/24 09:18:02;;;;;;;;;;;;;;;17.98;100.00;98917.59;1633074;87;20129;-71
2022/04/24 09:20:36;;;;;;;;;;;;;;;18.11;100.00;98928.20;1631605;87;20417;-72
2022/04/24 09:23:05;;;;;;;;;;;;;;;18.07;100.00;98944.00;1630210;88;20192;-74
2022/04/24 09:25:41;;;;;;;;;;;;;;;17.73;100.00;98958.95;1632766;88;20124;-70
2022/04/24 09:28:08;;;;;;;;;;;;;;;17.53;100.00;98946.55;1653274;86;20107;-72
2022/04/24 09:30:36;;;;;;;;;;;;;;;17.36;100.00;98941.55;1652012;87;20119;-72
2022/04/24 09:33:05;;;;;;;;;;;;;;;17.13;100.00;98950.09;1651879;87;20110;-72
2022/04/24 09:35:33;;;;;;;;;;;;;;;16.93;100.00;98932.73;1640684;87;20125;-70
2022/04/24 09:38:17;;;;;;;;;;;;;;;16.89;100.00;98920.10;1640622;88;20141;-69
2022/04/24 09:40:46;;;;;;;;;;;;;;;16.93;100.00;98915.50;1640828;88;20481;-71
2022/04/24 09:43:14;;;;;;;;;;;;;;;16.82;100.00;98916.64;1640847;88;20201;-72
2022/04/24 09:45:48;;;;;;;;;;;;;;;16.77;100.00;98915.67;1695593;84;20107;-70
2022/04/24 09:48:18;;;;;;;;;;;;;;;16.76;100.00;98910.75;1671589;86;20106;-71
2022/04/24 09:50:45;;;;;;;;;;;;;;;16.87;100.00;98903.65;1672795;85;20113;-72
2022/04/24 09:53:15;;;;;;;;;;;;;;;16.97;100.00;98899.78;1684310;85;20143;-71
2022/04/24 09:55:43;;;;;;;;;;;;;;;16.92;100.00;98908.41;1683178;85;20140;-72
2022/04/24 09:58:12;;;;;;;;;;;;;;;16.86;100.00;98911.56;1684483;84;20123;-72
2022/04/24 10:00:41;;;;;;;;;;;;;;;16.86;100.00;98908.83;1684590;85;20189;-70
2022/04/24 10:03:09;;;;;;;;;;;;;;;16.88;100.00;98917.06;1684463;85;20152;-71
2022/04/24 10:05:38;;;;;;;;;;;;;;;17.08;100.00;98904.37;1684259;85;20179;-72
2022/04/24 10:08:06;;;;;;;;;;;;;;;17.30;100.00;98913.81;1703850;82;20122;-70
2022/04/24 10:10:35;;;;;;;;;;;;;;;17.46;100.00;98912.52;1754959;82;20121;-71
2022/04/24 10:13:05;;;;;;;;;;;;;;;17.48;100.00;98934.69;1755070;82;20410;-71
2022/04/24 10:15:34;;;;;;;;;;;;;;;17.36;100.00;98932.80;1755210;80;20121;-69
2022/04/24 10:18:39;;;;;;;;;;;;;;;17.33;100.00;98926.45;1755173;80;20476;-71
2022/04/24 10:21:30;;;;;;;;;;;;;;;17.19;100.00;98936.85;1755377;82;20122;-72
2022/04/24 10:24:11;;;;;;;;;;;;;;;17.07;100.00;98938.78;1755109;80;20165;-71
2022/04/24 10:26:38;;;;;;;;;;;;;;;16.94;100.00;98943.94;1755154;82;20145;-70
2022/04/24 10:29:10;;;;;;;;;;;;;;;16.76;100.00;98944.88;1774792;80;20157;-71
2022/04/24 10:31:45;;;;;;;;;;;;;;;16.70;100.00;98934.38;1784628;80;20425;-71
2022/04/24 10:34:14;;;;;;;;;;;;;;;16.77;100.00;98926.59;1799590;79;20105;-69
2022/04/24 10:36:57;;;;;;;;;;;;;;;16.91;100.00;98914.92;1818505;79;20140;-70
2022/04/24 10:39:28;;;;;;;;;;;;;;;17.14;100.00;98908.58;1817975;79;20152;-72
2022/04/24 10:42:01;;;;;;;;;;;;;;;17.35;100.00;98924.34;1757241;80;20117;-71
2022/04/24 10:44:28;;;;;;;;;;;;;;;17.41;100.00;98941.66;1748575;82;20103;-71
2022/04/24 10:46:59;;;;;;;;;;;;;;;17.44;100.00;98946.09;1748639;82;20099;-71
2022/04/24 10:49:33;;;;;;;;;;;;;;;17.64;100.00;98938.83;1748659;81;20103;-70
2022/04/24 10:52:01;;;;;;;;;;;;;;;17.92;100.00;98950.02;1753611;81;20131;-71
2022/04/24 10:54:34;;;;;;;;;;;;;;;18.19;100.00;98959.27;1759281;82;20114;-73
2022/04/24 10:57:16;;;;;;;;;;;;;;;18.55;100.00;98969.97;1728957;83;20207;-70
2022/04/24 10:59:47;;;;;;;;;;;;;;;18.62;100.00;98987.61;1728149;82;20093;-72
2022/04/24 11:02:20;;;;;;;;;;;;;;;18.71;100.00;98985.55;1700144;84;20099;-73
2022/04/24 11:05:03;;;;;;;;;;;;;;;18.78;100.00;99003.19;1700249;83;20170;-72
2022/04/24 11:07:31;;;;;;;;;;;;;;;18.81;100.00;99013.64;1700536;83;20443;-72
2022/04/24 11:10:09;;;;;;;;;;;;;;;18.85;100.00;99023.05;1700189;84;20154;-71
2022/04/24 11:12:38;;;;;;;;;;;;;;;18.93;100.00;99013.05;1700524;83;20428;-71
2022/04/24 11:15:08;;;;;;;;;;;;;;;19.06;100.00;99011.03;1700201;84;20123;-72
2022/04/24 11:17:37;;;;;;;;;;;;;;;19.37;100.00;99003.22;1700444;83;20120;-73
2022/04/24 11:20:10;;;;;;;;;;;;;;;19.54;100.00;99021.27;1700205;84;20151;-71
2022/04/24 11:22:46;;;;;;;;;;;;;;;19.20;100.00;99050.70;1700593;84;20130;-73
2022/04/24 11:25:16;;;;;;;;;;;;;;;18.92;100.00;99040.68;1698840;84;20146;-71
2022/04/24 11:27:44;;;;;;;;;;;;;;;18.84;100.00;99026.02;1697262;84;20103;-71
2022/04/24 11:30:16;;;;;;;;;;;;;;;18.81;100.00;99023.78;1665522;86;20149;-71
2022/04/24 11:32:59;;;;;;;;;;;;;;;18.74;100.00;99023.39;1665708;86;20122;-71
2022/04/24 11:35:29;;;;;;;;;;;;;;;18.60;100.00;99023.44;1657579;84;20106;-72
2022/04/24 11:37:57;;;;;;;;;;;;;;;18.41;100.00;99028.30;1657680;87;20103;-71
2022/04/24 11:40:26;;;;;;;;;;;;;;;18.25;100.00;99019.00;1659894;85;20164;-71
2022/04/24 11:43:04;;;;;;;;;;;;;;;18.01;100.00;99013.66;1660188;85;20139;-71
2022/04/24 11:51:16;;;;;;;;;;;;;;;17.86;100.00;99007.88;1694727;84;20126;-70
2022/04/24 11:53:45;;;;;;;;;;;;;;;17.94;100.00;98999.84;1713110;84;20113;-72
2022/04/24 11:56:12;;;;;;;;;;;;;;;17.97;100.00;99004.80;1713285;84;20114;-70
2022/04/24 11:58:42;;;;;;;;;;;;;;;18.05;100.00;98994.84;1734879;81;20433;-70
2022/04/24 12:01:13;;;;;;;;;;;;;;;18.13;100.00;99004.55;1770801;81;20109;-71
2022/04/24 12:03:44;;;;;;;;;;;;;;;18.09;100.00;99017.89;1770189;81;20160;-72
2022/04/24 12:06:13;;;;;;;;;;;;;;;18.07;100.00;99020.59;1770471;81;20097;-71
2022/04/24 12:08:44;;;;;;;;;;;;;;;17.99;100.00;99027.30;1770153;81;20121;-71
2022/04/24 12:11:27;;;;;;;;;;;;;;;17.97;100.00;99023.95;1770468;81;20099;-71
2022/04/24 12:14:14;;;;;;;;;;;;;;;17.99;100.00;99025.37;1770199;81;20386;-72
2022/04/24 12:16:48;;;;;;;;;;;;;;;17.95;100.00;99019.27;1770668;81;20093;-71
2022/04/24 12:19:19;;;;;;;;;;;;;;;17.87;100.00;99020.49;1770452;81;20417;-71
2022/04/24 12:21:51;;;;;;;;;;;;;;;17.79;100.00;99024.94;1770641;81;20397;-71
2022/04/24 12:24:19;;;;;;;;;;;;;;;17.61;100.00;99024.58;1770212;81;20129;-72
2022/04/24 12:26:47;;;;;;;;;;;;;;;17.60;100.00;99026.50;1770498;81;20108;-70
2022/04/24 12:29:17;;;;;;;;;;;;;;;17.62;100.00;99022.98;1756776;81;20103;-70
2022/04/24 12:31:47;;;;;;;;;;;;;;;17.70;100.00;99027.23;1735730;83;20435;-71
2022/04/24 12:34:16;;;;;;;;;;;;;;;17.82;100.00;99024.46;1745452;82;20105;-72
2022/04/24 12:36:51;;;;;;;;;;;;;;;17.91;100.00;99027.67;1756694;82;20151;-69
2022/04/24 12:39:26;;;;;;;;;;;;;;;17.91;100.00;99030.41;1756763;82;20116;-72
2022/04/24 12:41:53;;;;;;;;;;;;;;;17.92;100.00;99036.16;1756342;82;20104;-71
2022/04/24 12:44:20;;;;;;;;;;;;;;;17.98;100.00;99042.85;1756897;82;20101;-70
2022/04/24 12:46:47;;;;;;;;;;;;;;;18.06;100.00;99061.31;1756778;82;20393;-72
2022/04/24 12:49:16;;;;;;;;;;;;;;;18.17;100.00;99063.19;1756593;82;20100;-71
2022/04/24 12:51:44;;;;;;;;;;;;;;;18.27;100.00;99067.46;1757793;79;20108;-70
2022/04/24 12:54:11;;;;;;;;;;;;;;;18.31;100.00;99076.01;1779756;81;20419;-72
2022/04/24 12:56:41;;;;;;;;;;;;;;;18.28;100.00;99081.45;1779519;81;20119;-71
2022/04/24 12:59:08;;;;;;;;;;;;;;;18.35;100.00;99075.83;1779505;81;20095;-72
2022/04/24 13:01:35;;;;;;;;;;;;;;;18.47;100.00;99088.06;1779586;81;20380;-70